Time;durP1;ratioP1;P1;durP2;ratioP2;P2;SDS_P1;SDS_P2;PMS_P1;PMS_P2;Temp;Humidity;BMP_temperature;BMP_pressure;BME280_temperature;BME280_humidity;BME280_pressure;Samples;Min_cycle;Max_cycle;Signal;HPM_P1;HPM_P2
2022/07/31 00:00:10;;;;;;;1.52;1.42;;;17.90;99.90;;;;;;4975293;28;20050;-94
2022/07/31 00:02:36;;;;;;;2.03;1.48;;;17.90;99.90;;;;;;4975249;28;20035;-92
2022/07/31 00:05:03;;;;;;;1.40;1.30;;;17.90;99.90;;;;;;4975506;28;20109;-93
2022/07/31 00:07:29;;;;;;;1.58;1.40;;;17.90;99.90;;;;;;4958497;28;20669;-92
2022/07/31 00:09:55;;;;;;;1.50;1.40;;;17.90;99.90;;;;;;4957860;28;20019;-93
2022/07/31 00:12:21;;;;;;;2.67;1.73;;;17.90;99.90;;;;;;4959010;28;20126;-92
2022/07/31 00:14:47;;;;;;;2.25;1.65;;;17.90;99.90;;;;;;4975372;28;20023;-93
2022/07/31 00:17:13;;;;;;;2.28;1.50;;;17.90;99.90;;;;;;4958626;28;20026;-92
2022/07/31 00:19:40;;;;;;;2.47;2.03;;;17.90;99.90;;;;;;4958240;28;20058;-92
2022/07/31 00:22:06;;;;;;;3.15;1.75;;;17.90;99.90;;;;;;4959129;28;20031;-94
2022/07/31 00:24:32;;;;;;;3.15;2.13;;;17.90;99.90;;;;;;4959379;28;20019;-91
2022/07/31 00:26:58;;;;;;;4.10;2.17;;;17.80;99.90;;;;;;4976401;28;20031;-95
2022/07/31 00:29:25;;;;;;;4.72;2.45;;;17.80;99.90;;;;;;4961400;28;20019;-92
2022/07/31 00:31:50;;;;;;;2.92;1.95;;;17.80;99.90;;;;;;4961318;28;20035;-92
2022/07/31 00:34:16;;;;;;;6.97;2.70;;;17.80;99.90;;;;;;4966814;28;20121;-91
2022/07/31 00:36:42;;;;;;;2.97;2.10;;;17.80;99.90;;;;;;4976255;28;20106;-93
2022/07/31 00:39:09;;;;;;;4.32;2.38;;;17.80;99.90;;;;;;4969896;28;20035;-93
2022/07/31 00:41:42;;;;;;;3.67;2.08;;;17.80;99.90;;;;;;4979256;28;20031;-92
2022/07/31 00:44:12;;;;;;;4.25;1.83;;;17.80;99.90;;;;;;4958856;28;20035;-91
2022/07/31 00:46:38;;;;;;;2.15;1.70;;;17.80;99.90;;;;;;4961585;28;20037;-93
2022/07/31 00:49:06;;;;;;;3.42;2.50;;;17.80;99.90;;;;;;4961037;28;20038;-92
2022/07/31 00:51:32;;;;;;;1.65;1.50;;;17.80;99.90;;;;;;4961231;28;20181;-92
2022/07/31 00:53:58;;;;;;;3.70;2.40;;;17.80;99.90;;;;;;4961228;28;20036;-93
2022/07/31 00:56:24;;;;;;;2.60;2.25;;;17.80;99.90;;;;;;4960540;28;20054;-91
2022/07/31 00:58:50;;;;;;;5.15;2.90;;;17.80;99.90;;;;;;4960461;28;20540;-93
2022/07/31 01:01:16;;;;;;;4.10;2.85;;;17.80;99.90;;;;;;4976507;28;20069;-93
2022/07/31 01:03:42;;;;;;;2.38;1.92;;;17.80;99.90;;;;;;4960895;28;20027;-93
2022/07/31 01:06:08;;;;;;;2.15;1.80;;;17.80;99.90;;;;;;4961088;28;20101;-93
2022/07/31 01:08:34;;;;;;;5.68;2.30;;;17.80;99.90;;;;;;4960669;28;20022;-92
2022/07/31 01:11:09;;;;;;;3.90;2.22;;;17.80;99.90;;;;;;4977370;28;20118;-95
2022/07/31 01:13:39;;;;;;;2.30;2.00;;;17.80;99.90;;;;;;4977009;28;20053;-92
2022/07/31 01:16:08;;;;;;;3.45;2.00;;;17.80;99.90;;;;;;4977002;28;20074;-92
2022/07/31 01:18:36;;;;;;;4.20;1.65;;;17.80;99.90;;;;;;4977489;28;20106;-93
2022/07/31 01:21:12;;;;;;;2.25;1.80;;;17.80;99.90;;;;;;4976843;28;20023;-92
2022/07/31 01:23:53;;;;;;;4.45;2.03;;;17.80;99.90;;;;;;4976771;28;20029;-92
2022/07/31 01:26:44;;;;;;;3.17;1.50;;;17.80;99.90;;;;;;4960634;28;20645;-92
2022/07/31 01:29:28;;;;;;;1.75;1.40;;;17.80;99.90;;;;;;4976585;28;20027;-94
2022/07/31 01:32:02;;;;;;;1.35;1.20;;;17.80;99.90;;;;;;4977304;28;20056;-92
2022/07/31 01:34:37;;;;;;;1.80;1.20;;;17.80;99.90;;;;;;4977322;28;20472;-93
2022/07/31 01:37:28;;;;;;;2.45;1.40;;;17.80;99.90;;;;;;4960838;28;20043;-92
2022/07/31 01:40:03;;;;;;;2.85;1.20;;;17.80;99.90;;;;;;4960378;28;20023;-93
2022/07/31 01:42:30;;;;;;;2.25;1.15;;;17.80;99.90;;;;;;4977633;28;20500;-94
2022/07/31 01:44:59;;;;;;;2.88;1.30;;;17.80;99.90;;;;;;4978035;28;20027;-95
2022/07/31 01:47:28;;;;;;;2.13;1.38;;;17.80;99.90;;;;;;4978268;28;20030;-94
2022/07/31 01:49:54;;;;;;;1.85;1.40;;;17.80;99.90;;;;;;4976838;28;20046;-95
2022/07/31 01:52:24;;;;;;;4.55;1.00;;;17.80;99.90;;;;;;4978182;28;20042;-92
2022/07/31 01:54:52;;;;;;;1.90;1.02;;;17.80;99.90;;;;;;4976947;28;20058;-93
2022/07/31 01:57:21;;;;;;;1.48;0.98;;;17.70;99.90;;;;;;4975902;28;20074;-93
2022/07/31 01:59:48;;;;;;;3.85;1.13;;;17.80;99.90;;;;;;4976709;28;20026;-93
2022/07/31 02:02:16;;;;;;;1.50;0.95;;;17.80;99.90;;;;;;4977199;28;20050;-95
2022/07/31 02:04:45;;;;;;;3.03;1.10;;;17.70;99.90;;;;;;4976305;28;20019;-94
2022/07/31 02:07:13;;;;;;;2.55;0.90;;;17.70;99.90;;;;;;4976711;28;20033;-94
2022/07/31 02:09:42;;;;;;;2.15;0.90;;;17.70;99.90;;;;;;4976187;28;20122;-92
2022/07/31 02:12:10;;;;;;;1.75;0.90;;;17.70;99.90;;;;;;4975746;28;20089;-92
2022/07/31 02:14:40;;;;;;;1.95;0.98;;;17.70;99.90;;;;;;4976376;28;20026;-96
2022/07/31 02:17:08;;;;;;;4.25;0.90;;;17.70;99.90;;;;;;4959692;28;20042;-94
2022/07/31 02:19:40;;;;;;;1.50;0.85;;;17.70;99.90;;;;;;4975573;28;20027;-92
2022/07/31 02:22:06;;;;;;;1.38;0.70;;;17.70;99.90;;;;;;4975936;28;20035;-94
2022/07/31 02:24:33;;;;;;;0.80;0.80;;;17.70;99.90;;;;;;4976040;28;20022;-94
2022/07/31 02:27:01;;;;;;;0.55;0.50;;;17.70;99.90;;;;;;4960499;28;20027;-94
2022/07/31 02:29:30;;;;;;;0.70;0.52;;;17.70;99.90;;;;;;4978707;28;20034;-95
2022/07/31 02:31:57;;;;;;;1.73;0.90;;;17.70;99.90;;;;;;4982442;28;20035;-94
2022/07/31 02:34:25;;;;;;;2.03;0.75;;;17.70;99.90;;;;;;4980081;28;20085;-93
2022/07/31 02:36:53;;;;;;;1.40;0.50;;;17.70;99.90;;;;;;4976973;28;20043;-94
2022/07/31 02:39:20;;;;;;;5.50;0.50;;;17.60;99.90;;;;;;4976541;28;20205;-92
2022/07/31 02:41:47;;;;;;;2.92;0.50;;;17.70;99.90;;;;;;4985623;28;20106;-93
2022/07/31 02:44:14;;;;;;;0.55;0.47;;;17.70;99.90;;;;;;4982060;28;20030;-93
2022/07/31 02:46:43;;;;;;;3.15;0.55;;;17.60;99.90;;;;;;4984010;28;20031;-93
2022/07/31 02:49:15;;;;;;;0.30;0.30;;;17.70;99.90;;;;;;4989341;28;20018;-91
2022/07/31 02:51:41;;;;;;;0.40;0.40;;;17.70;99.90;;;;;;4998402;28;20105;-91
2022/07/31 02:54:07;;;;;;;0.82;0.40;;;17.60;99.90;;;;;;4981879;28;20050;-92
2022/07/31 02:56:33;;;;;;;4.85;0.65;;;17.60;99.90;;;;;;4974086;28;20046;-94
2022/07/31 02:58:59;;;;;;;0.57;0.30;;;17.60;99.90;;;;;;4979981;28;20045;-95
2022/07/31 03:01:25;;;;;;;0.75;0.40;;;17.60;99.90;;;;;;4961706;28;20110;-94
2022/07/31 03:03:51;;;;;;;1.85;0.30;;;17.60;99.90;;;;;;4961929;28;20034;-95
2022/07/31 03:06:18;;;;;;;1.27;0.30;;;17.60;99.90;;;;;;4978015;28;20080;-94
2022/07/31 03:08:43;;;;;;;0.50;0.20;;;17.60;99.90;;;;;;4960782;28;20038;-94
2022/07/31 03:11:10;;;;;;;1.10;0.52;;;17.60;99.90;;;;;;4960902;28;20111;-95
2022/07/31 03:13:36;;;;;;;0.28;0.28;;;17.60;99.90;;;;;;4962960;28;20082;-95
2022/07/31 03:16:06;;;;;;;1.70;0.30;;;17.60;99.90;;;;;;4984352;28;20037;-95
2022/07/31 03:18:32;;;;;;;2.35;0.20;;;17.60;99.90;;;;;;4982674;28;20031;-95
2022/07/31 03:20:58;;;;;;;0.68;0.40;;;17.60;99.90;;;;;;4984697;28;20034;-95
2022/07/31 03:23:26;;;;;;;0.22;0.20;;;17.60;99.90;;;;;;4971713;28;20392;-95
2022/07/31 03:25:53;;;;;;;0.52;0.20;;;17.60;99.90;;;;;;4987751;28;20078;-96
2022/07/31 03:28:20;;;;;;;0.75;0.20;;;17.60;99.90;;;;;;4969805;28;20035;-95
2022/07/31 03:30:49;;;;;;;0.28;0.20;;;17.60;99.90;;;;;;4975397;28;20023;-94
2022/07/31 03:33:15;;;;;;;0.38;0.35;;;17.60;99.90;;;;;;4987831;28;20035;-96
2022/07/31 03:35:41;;;;;;;0.20;0.20;;;17.60;99.90;;;;;;4961800;28;20026;-95
2022/07/31 03:38:07;;;;;;;0.20;0.20;;;17.60;99.90;;;;;;4969017;28;20027;-95
2022/07/31 03:40:33;;;;;;;0.50;0.25;;;17.60;99.90;;;;;;4972650;28;20026;-94
2022/07/31 03:43:01;;;;;;;0.30;0.30;;;17.60;99.90;;;;;;4981565;28;20061;-95
2022/07/31 03:45:29;;;;;;;0.30;0.30;;;17.60;99.90;;;;;;4984134;28;20035;-95
2022/07/31 03:47:55;;;;;;;0.82;0.30;;;17.60;99.90;;;;;;4962999;28;20023;-95
2022/07/31 03:50:22;;;;;;;1.38;0.40;;;17.60;99.90;;;;;;4981746;28;20065;-96
2022/07/31 03:52:49;;;;;;;0.40;0.20;;;17.60;99.90;;;;;;4982891;28;20035;-95
2022/07/31 03:55:15;;;;;;;1.48;0.43;;;17.60;99.90;;;;;;4984580;28;20023;-95
2022/07/31 03:57:42;;;;;;;0.50;0.50;;;17.60;99.90;;;;;;4965476;28;20061;-95
2022/07/31 04:00:09;;;;;;;1.33;0.43;;;17.60;99.90;;;;;;4981315;28;20113;-96
2022/07/31 04:02:34;;;;;;;1.20;0.40;;;17.60;99.90;;;;;;4968560;28;20026;-96
2022/07/31 04:05:00;;;;;;;2.97;0.70;;;17.60;99.90;;;;;;4971924;28;20061;-96
2022/07/31 04:07:26;;;;;;;0.55;0.55;;;17.60;99.90;;;;;;4972991;28;20034;-92
2022/07/31 04:09:52;;;;;;;1.85;0.52;;;17.60;99.90;;;;;;4997394;28;20019;-94
2022/07/31 04:12:18;;;;;;;1.70;0.63;;;17.60;99.90;;;;;;4979583;28;20046;-94
2022/07/31 04:14:45;;;;;;;0.80;0.60;;;17.60;99.90;;;;;;4980153;28;20069;-93
2022/07/31 04:17:11;;;;;;;1.20;0.60;;;17.60;99.90;;;;;;4996508;28;20037;-93
2022/07/31 04:19:38;;;;;;;1.50;0.70;;;17.60;99.90;;;;;;4998921;28;20050;-92
2022/07/31 04:22:04;;;;;;;1.60;0.82;;;17.60;99.90;;;;;;4985297;28;20030;-95
2022/07/31 04:24:30;;;;;;;0.75;0.60;;;17.60;99.90;;;;;;4984402;28;20097;-93
2022/07/31 04:26:57;;;;;;;0.60;0.60;;;17.60;99.90;;;;;;5000325;28;20027;-91
2022/07/31 04:29:23;;;;;;;1.52;0.70;;;17.60;99.90;;;;;;4995784;28;20103;-96
2022/07/31 04:31:49;;;;;;;2.25;0.82;;;17.60;99.90;;;;;;4991376;28;20074;-95
2022/07/31 04:34:15;;;;;;;0.93;0.80;;;17.60;99.90;;;;;;4975051;28;20023;-95
2022/07/31 04:36:41;;;;;;;0.70;0.70;;;17.50;99.90;;;;;;4992580;28;20526;-96
2022/07/31 04:39:06;;;;;;;1.10;0.85;;;17.50;99.90;;;;;;4987038;28;20031;-95
2022/07/31 04:41:32;;;;;;;1.83;0.70;;;17.50;99.90;;;;;;4969856;28;20118;-95
2022/07/31 04:43:58;;;;;;;3.08;0.65;;;17.50;99.90;;;;;;4972652;28;20123;-93
2022/07/31 04:46:27;;;;;;;0.82;0.47;;;17.50;99.90;;;;;;4973989;28;20038;-95
2022/07/31 04:48:53;;;;;;;5.15;0.60;;;17.50;99.90;;;;;;4997237;28;20023;-94
2022/07/31 04:51:20;;;;;;;4.00;0.80;;;17.50;99.90;;;;;;4980002;28;20034;-95
2022/07/31 04:53:49;;;;;;;1.65;0.43;;;17.50;99.90;;;;;;5000137;28;20015;-92
2022/07/31 04:56:32;;;;;;;1.63;0.43;;;17.50;99.90;;;;;;4997013;28;20027;-92
2022/07/31 04:58:59;;;;;;;1.40;0.50;;;17.50;99.90;;;;;;4999606;28;20044;-94
2022/07/31 05:01:25;;;;;;;0.40;0.40;;;17.50;99.90;;;;;;5000765;28;20051;-95
2022/07/31 05:03:51;;;;;;;1.40;0.70;;;17.50;99.90;;;;;;5000478;28;20015;-91
2022/07/31 05:06:17;;;;;;;1.08;0.70;;;17.50;99.90;;;;;;5001562;28;20015;-93
2022/07/31 05:08:43;;;;;;;2.45;0.80;;;17.50;99.90;;;;;;4984807;28;20018;-93
2022/07/31 05:11:21;;;;;;;1.33;0.80;;;17.50;99.90;;;;;;4983842;28;20045;-95
2022/07/31 05:13:47;;;;;;;3.65;0.80;;;17.50;99.90;;;;;;4992930;28;20042;-94
2022/07/31 05:16:13;;;;;;;1.65;0.90;;;17.50;99.90;;;;;;4989325;28;20094;-96
2022/07/31 05:18:39;;;;;;;3.58;1.05;;;17.50;99.90;;;;;;4985877;28;20027;-95
2022/07/31 05:21:04;;;;;;;1.40;1.00;;;17.50;99.90;;;;;;4966104;28;20041;-96
2022/07/31 05:23:30;;;;;;;3.13;1.02;;;17.60;99.90;;;;;;4961512;28;20037;-95
2022/07/31 05:25:56;;;;;;;1.55;0.90;;;17.60;99.90;;;;;;4961238;28;20089;-95
2022/07/31 05:28:21;;;;;;;1.75;1.20;;;17.60;99.90;;;;;;4962514;28;20469;-96
2022/07/31 05:30:47;;;;;;;4.07;1.35;;;17.60;99.90;;;;;;4963030;28;20107;-95
2022/07/31 05:33:13;;;;;;;2.70;1.33;;;17.60;99.90;;;;;;4969636;28;20039;-94
2022/07/31 05:35:38;;;;;;;0.82;0.70;;;17.60;99.90;;;;;;4976167;28;20061;-94
2022/07/31 05:38:07;;;;;;;1.05;0.85;;;17.60;99.90;;;;;;4968094;28;20098;-95
2022/07/31 05:40:33;;;;;;;0.68;0.40;;;17.60;99.90;;;;;;4968409;28;20019;-94
2022/07/31 05:42:59;;;;;;;0.88;0.68;;;17.60;99.90;;;;;;4973082;28;20405;-95
2022/07/31 05:45:24;;;;;;;7.88;0.60;;;17.60;99.90;;;;;;4975709;28;20046;-95
2022/07/31 05:47:50;;;;;;;1.17;0.63;;;17.70;99.90;;;;;;4995462;28;20045;-95
2022/07/31 05:50:20;;;;;;;1.58;0.40;;;17.70;99.90;;;;;;4982245;28;20039;-93
2022/07/31 05:52:48;;;;;;;2.45;0.52;;;17.70;99.90;;;;;;4979590;28;20059;-93
2022/07/31 05:55:14;;;;;;;0.50;0.50;;;17.70;99.90;;;;;;4999586;28;20019;-94
2022/07/31 05:57:40;;;;;;;2.08;0.40;;;17.70;99.90;;;;;;4999639;28;20199;-91
2022/07/31 06:00:07;;;;;;;1.00;0.30;;;17.70;99.90;;;;;;4998448;28;20094;-95
2022/07/31 06:02:34;;;;;;;0.10;0.10;;;17.70;99.90;;;;;;4994588;28;20026;-95
2022/07/31 06:05:00;;;;;;;0.35;0.35;;;17.70;99.90;;;;;;4985005;28;20038;-95
2022/07/31 06:07:26;;;;;;;0.20;0.20;;;17.70;99.90;;;;;;4990233;28;20026;-96
2022/07/31 06:09:51;;;;;;;2.10;0.30;;;17.70;99.90;;;;;;4986651;28;20081;-95
2022/07/31 06:12:18;;;;;;;0.57;0.28;;;17.80;99.90;;;;;;4962380;28;20062;-94
2022/07/31 06:14:44;;;;;;;0.30;0.30;;;17.80;99.90;;;;;;4977656;28;20034;-94
2022/07/31 06:17:10;;;;;;;0.30;0.20;;;17.70;99.90;;;;;;4976625;28;20038;-96
2022/07/31 06:19:36;;;;;;;1.55;0.20;;;17.70;99.90;;;;;;4978055;28;20464;-94
2022/07/31 06:22:02;;;;;;;0.80;0.40;;;17.70;99.90;;;;;;4961561;28;20409;-96
2022/07/31 06:24:28;;;;;;;0.43;0.40;;;17.70;99.90;;;;;;4978461;28;20023;-94
2022/07/31 06:27:00;;;;;;;0.30;0.20;;;17.70;99.90;;;;;;4979724;28;20027;-96
2022/07/31 06:29:27;;;;;;;0.20;0.20;;;17.70;99.90;;;;;;4977841;28;20023;-96
2022/07/31 06:31:54;;;;;;;0.63;0.30;;;17.70;99.90;;;;;;4978926;28;20125;-95
2022/07/31 06:34:20;;;;;;;1.35;0.60;;;17.70;99.90;;;;;;4976844;28;20031;-96
2022/07/31 06:36:45;;;;;;;0.30;0.30;;;17.70;99.90;;;;;;4978079;28;20049;-95
2022/07/31 06:39:11;;;;;;;0.90;0.40;;;17.70;99.90;;;;;;4966680;28;20031;-95
2022/07/31 06:41:43;;;;;;;1.00;0.40;;;17.70;99.90;;;;;;4960279;28;20027;-95
2022/07/31 06:44:09;;;;;;;0.30;0.30;;;17.70;99.90;;;;;;4961248;28;20046;-96
2022/07/31 06:46:35;;;;;;;1.02;0.40;;;17.70;99.90;;;;;;4976720;28;20134;-92
2022/07/31 06:49:01;;;;;;;2.28;0.43;;;17.80;99.90;;;;;;4976894;28;20030;-94
2022/07/31 06:51:27;;;;;;;1.35;0.55;;;17.80;99.90;;;;;;4960413;28;20027;-93
2022/07/31 06:53:52;;;;;;;0.40;0.40;;;17.80;99.90;;;;;;4961747;28;20029;-95
2022/07/31 06:56:18;;;;;;;0.77;0.60;;;17.80;99.90;;;;;;4964713;28;20027;-95
2022/07/31 06:58:44;;;;;;;0.95;0.63;;;17.80;99.90;;;;;;4982232;28;20033;-96
2022/07/31 07:01:10;;;;;;;0.70;0.57;;;17.90;99.90;;;;;;4968923;28;20519;-96
2022/07/31 07:03:36;;;;;;;1.20;0.68;;;17.90;99.90;;;;;;4960643;28;20023;-94
2022/07/31 07:06:02;;;;;;;0.90;0.80;;;17.80;99.90;;;;;;4962103;28;20390;-95
2022/07/31 07:08:28;;;;;;;0.82;0.70;;;17.80;99.90;;;;;;4962903;28;20030;-95
2022/07/31 07:10:54;;;;;;;0.70;0.70;;;17.90;99.90;;;;;;4968246;28;20031;-96
2022/07/31 07:13:20;;;;;;;0.63;0.60;;;17.90;99.90;;;;;;4991548;28;20035;-95
2022/07/31 07:15:46;;;;;;;1.05;0.70;;;18.00;99.90;;;;;;4982030;28;20046;-93
2022/07/31 07:18:12;;;;;;;4.75;0.80;;;18.00;99.90;;;;;;4981972;28;20098;-91
2022/07/31 07:20:38;;;;;;;1.63;1.10;;;18.00;99.90;;;;;;4979221;28;20098;-96
2022/07/31 07:23:03;;;;;;;3.75;1.00;;;18.00;99.90;;;;;;4975459;28;20054;-93
2022/07/31 07:25:30;;;;;;;4.53;1.40;;;18.00;99.90;;;;;;4973563;28;20042;-95
2022/07/31 07:27:55;;;;;;;1.83;1.20;;;18.00;99.90;;;;;;4971160;28;20061;-95
2022/07/31 07:30:22;;;;;;;3.15;1.55;;;18.10;99.90;;;;;;4984603;28;20027;-94
2022/07/31 07:32:47;;;;;;;5.88;2.30;;;18.10;99.90;;;;;;4980667;28;20038;-95
2022/07/31 07:35:13;;;;;;;2.90;1.98;;;18.10;99.90;;;;;;4964996;28;20030;-96
2022/07/31 07:37:40;;;;;;;3.67;2.20;;;18.10;99.90;;;;;;4967593;28;20061;-95
2022/07/31 07:40:07;;;;;;;3.42;1.98;;;18.10;99.90;;;;;;4984222;28;20480;-96
2022/07/31 07:42:34;;;;;;;5.22;1.80;;;18.20;99.90;;;;;;4984072;28;20050;-96
2022/07/31 07:45:00;;;;;;;3.72;2.08;;;18.20;99.90;;;;;;4976850;28;20027;-95
2022/07/31 07:47:28;;;;;;;3.17;1.70;;;18.30;99.90;;;;;;4980177;28;20098;-95
2022/07/31 07:49:54;;;;;;;2.60;1.98;;;18.30;99.90;;;;;;4979454;28;20082;-95
2022/07/31 07:52:20;;;;;;;1.70;1.40;;;18.50;99.90;;;;;;4974310;28;20054;-94
2022/07/31 07:54:45;;;;;;;3.15;1.52;;;18.50;99.90;;;;;;4974158;28;20476;-94
2022/07/31 07:57:21;;;;;;;1.40;1.23;;;18.60;99.90;;;;;;4977491;28;20062;-93
2022/07/31 07:59:47;;;;;;;2.15;1.20;;;18.60;99.90;;;;;;4991273;28;20027;-95
2022/07/31 08:02:14;;;;;;;3.25;1.40;;;18.70;99.90;;;;;;4973859;28;20094;-95
2022/07/31 08:04:41;;;;;;;1.40;1.30;;;18.70;99.90;;;;;;4990332;28;20121;-94
2022/07/31 08:07:07;;;;;;;0.93;0.93;;;18.80;99.90;;;;;;4959878;28;20038;-95
2022/07/31 08:09:34;;;;;;;4.03;1.73;;;18.90;99.90;;;;;;4974979;28;20035;-96
2022/07/31 08:12:00;;;;;;;2.42;1.20;;;19.00;99.90;;;;;;4985657;28;20047;-93
2022/07/31 08:14:26;;;;;;;1.38;1.00;;;19.00;99.90;;;;;;4964204;28;20057;-96
2022/07/31 08:16:52;;;;;;;0.93;0.93;;;19.10;99.90;;;;;;4961464;28;20031;-96
2022/07/31 08:19:18;;;;;;;1.08;0.80;;;19.10;99.90;;;;;;4962533;28;20031;-95
2022/07/31 08:21:44;;;;;;;0.85;0.85;;;19.20;99.90;;;;;;4963279;28;20026;-95
2022/07/31 08:24:10;;;;;;;0.75;0.63;;;19.30;99.90;;;;;;4958855;28;20039;-95
2022/07/31 08:29:21;;;;;;;0.52;0.52;;;19.30;99.90;;;;;;4974967;28;20053;-95
2022/07/31 08:31:46;;;;;;;0.40;0.40;;;19.30;99.90;;;;;;4960124;28;20022;-95
2022/07/31 08:34:12;;;;;;;1.30;0.35;;;19.30;99.90;;;;;;4963070;28;20035;-94
2022/07/31 08:36:38;;;;;;;0.90;0.30;;;19.30;99.90;;;;;;4963723;28;20023;-96
2022/07/31 08:39:04;;;;;;;0.35;0.25;;;19.40;99.90;;;;;;4961368;28;20138;-96
2022/07/31 08:41:37;;;;;;;0.20;0.20;;;19.40;99.90;;;;;;4968080;28;20555;-93
2022/07/31 08:44:07;;;;;;;0.47;0.15;;;19.50;99.90;;;;;;4973200;28;20035;-94
2022/07/31 08:46:40;;;;;;;0.20;0.20;;;19.50;99.90;;;;;;4965626;28;20015;-94
2022/07/31 08:49:08;;;;;;;0.20;0.20;;;19.40;99.90;;;;;;4969960;28;20019;-94
2022/07/31 08:51:36;;;;;;;0.55;0.20;;;19.40;99.90;;;;;;4973565;28;20046;-95
2022/07/31 08:54:06;;;;;;;0.55;0.20;;;19.40;99.90;;;;;;4968480;28;20019;-95
2022/07/31 08:56:34;;;;;;;0.10;0.10;;;19.40;99.90;;;;;;4978953;28;20074;-93
2022/07/31 08:59:00;;;;;;;0.43;0.28;;;19.30;99.90;;;;;;4974368;28;20030;-94
2022/07/31 09:01:26;;;;;;;0.98;0.30;;;19.30;99.90;;;;;;4974651;28;20023;-94
2022/07/31 09:03:53;;;;;;;2.03;0.38;;;19.40;99.90;;;;;;4965125;28;20442;-95
2022/07/31 09:06:19;;;;;;;0.57;0.20;;;19.40;99.90;;;;;;4964795;28;20042;-95
2022/07/31 09:08:45;;;;;;;0.20;0.20;;;19.40;99.90;;;;;;4965465;28;20042;-94
2022/07/31 09:11:14;;;;;;;0.25;0.25;;;19.40;99.90;;;;;;4985488;28;20042;-93
2022/07/31 09:13:52;;;;;;;0.32;0.30;;;19.30;99.90;;;;;;4965828;28;20042;-94
2022/07/31 09:16:17;;;;;;;0.80;0.40;;;19.40;99.90;;;;;;4960688;28;20053;-96
2022/07/31 09:18:43;;;;;;;1.92;0.30;;;19.40;99.90;;;;;;4960080;28;20497;-94
2022/07/31 09:21:09;;;;;;;1.55;0.25;;;19.60;99.90;;;;;;4960235;28;20042;-93
2022/07/31 09:23:45;;;;;;;2.92;0.28;;;19.70;99.90;;;;;;4961143;28;20121;-95
2022/07/31 09:26:11;;;;;;;1.77;0.30;;;19.90;99.90;;;;;;4959195;28;20027;-94
2022/07/31 09:28:42;;;;;;;1.67;0.55;;;19.90;99.90;;;;;;4944974;28;20026;-94
2022/07/31 09:31:09;;;;;;;0.82;0.30;;;19.90;99.90;;;;;;4966551;28;20470;-95
2022/07/31 09:33:38;;;;;;;0.60;0.25;;;20.00;99.90;;;;;;4987967;28;20121;-95
2022/07/31 09:36:05;;;;;;;1.80;0.50;;;20.10;99.90;;;;;;4987420;28;20019;-95
2022/07/31 09:38:36;;;;;;;0.43;0.43;;;20.20;99.90;;;;;;4967208;28;20019;-96
2022/07/31 09:41:18;;;;;;;0.52;0.52;;;20.30;99.90;;;;;;4960013;28;20019;-95
2022/07/31 09:43:55;;;;;;;0.43;0.30;;;20.30;99.90;;;;;;4959723;28;20034;-94
2022/07/31 09:46:21;;;;;;;0.40;0.40;;;20.30;99.90;;;;;;4952939;28;20022;-95
2022/07/31 09:48:56;;;;;;;1.27;0.50;;;20.40;99.90;;;;;;4959888;28;20030;-94
2022/07/31 09:51:22;;;;;;;0.60;0.40;;;20.40;99.90;;;;;;4959936;28;20166;-95
2022/07/31 09:53:55;;;;;;;1.70;0.30;;;20.40;99.90;;;;;;4960467;28;20058;-95
2022/07/31 09:56:32;;;;;;;1.27;0.40;;;20.40;99.90;;;;;;4959412;28;20408;-94
2022/07/31 09:58:58;;;;;;;1.30;0.43;;;20.40;99.90;;;;;;4961324;28;20043;-94
2022/07/31 10:01:25;;;;;;;1.20;0.70;;;20.40;99.90;;;;;;4963308;28;20027;-95
2022/07/31 10:03:55;;;;;;;1.55;0.60;;;20.40;99.90;;;;;;4966217;28;20023;-95
2022/07/31 10:06:24;;;;;;;0.38;0.38;;;20.40;99.90;;;;;;4963272;28;20027;-96
2022/07/31 10:08:51;;;;;;;0.82;0.50;;;20.40;99.90;;;;;;4961231;28;20027;-94
2022/07/31 10:11:19;;;;;;;0.30;0.30;;;20.30;99.90;;;;;;4960023;28;20023;-94
2022/07/31 10:13:49;;;;;;;0.88;0.57;;;20.30;99.90;;;;;;4958757;28;20445;-94
2022/07/31 10:16:15;;;;;;;0.70;0.43;;;20.30;99.90;;;;;;4958580;28;20026;-93
2022/07/31 10:18:46;;;;;;;0.47;0.47;;;20.20;99.90;;;;;;4956953;28;20473;-94
2022/07/31 10:21:18;;;;;;;0.47;0.47;;;20.30;99.90;;;;;;4971944;28;20022;-93
2022/07/31 10:23:45;;;;;;;2.53;0.70;;;20.20;99.90;;;;;;4957316;28;20095;-94
2022/07/31 10:26:11;;;;;;;0.93;0.60;;;20.20;99.90;;;;;;4957108;28;20027;-93
2022/07/31 10:28:37;;;;;;;1.05;0.63;;;20.00;99.90;;;;;;4958439;28;20129;-92
2022/07/31 10:31:03;;;;;;;1.23;0.70;;;20.00;99.90;;;;;;4958738;28;20404;-93
2022/07/31 10:33:31;;;;;;;1.00;0.93;;;19.90;99.90;;;;;;4958555;28;20749;-94
2022/07/31 10:36:07;;;;;;;1.40;1.10;;;19.80;99.90;;;;;;4957849;28;20050;-94
2022/07/31 10:38:50;;;;;;;2.33;1.00;;;19.60;99.90;;;;;;4955244;28;20042;-94
2022/07/31 10:41:35;;;;;;;1.50;1.35;;;19.60;99.90;;;;;;4955860;28;20025;-93
2022/07/31 10:44:18;;;;;;;2.03;1.27;;;19.50;99.90;;;;;;4972803;28;20062;-95
2022/07/31 10:46:45;;;;;;;2.70;1.42;;;19.50;99.90;;;;;;4961648;28;20034;-92
2022/07/31 10:49:10;;;;;;;5.47;1.77;;;19.50;99.90;;;;;;4958311;28;20207;-92
2022/07/31 10:51:50;;;;;;;2.22;2.03;;;19.50;99.90;;;;;;4958101;28;20663;-93
2022/07/31 10:54:16;;;;;;;3.83;2.45;;;19.50;99.90;;;;;;4971937;28;20511;-93
2022/07/31 10:56:46;;;;;;;5.57;2.90;;;19.50;99.90;;;;;;4957695;28;20492;-94
2022/07/31 10:59:12;;;;;;;3.70;2.42;;;19.50;99.90;;;;;;4955229;28;20047;-93
2022/07/31 11:01:48;;;;;;;3.85;2.35;;;19.40;99.90;;;;;;4957895;28;20050;-94
2022/07/31 11:04:30;;;;;;;3.25;2.72;;;19.30;99.90;;;;;;4971402;28;20038;-93
2022/07/31 11:06:57;;;;;;;5.35;2.63;;;19.30;99.90;;;;;;4954700;28;20030;-93
2022/07/31 11:09:25;;;;;;;2.70;2.25;;;19.30;99.90;;;;;;4956333;28;20086;-91
2022/07/31 11:11:51;;;;;;;3.85;2.10;;;19.30;99.90;;;;;;4958183;28;20042;-93
2022/07/31 11:14:17;;;;;;;3.70;2.50;;;19.30;99.90;;;;;;4956200;28;20054;-93
2022/07/31 11:16:54;;;;;;;4.72;2.35;;;19.30;99.90;;;;;;4973617;28;20047;-93
2022/07/31 11:19:20;;;;;;;4.45;2.53;;;19.30;99.90;;;;;;4972544;28;20022;-93
2022/07/31 11:21:45;;;;;;;5.32;2.67;;;19.30;99.90;;;;;;4955918;28;20101;-93
2022/07/31 11:24:22;;;;;;;4.95;2.47;;;19.30;99.90;;;;;;4970830;28;20085;-93
2022/07/31 11:26:56;;;;;;;5.80;2.28;;;19.30;99.90;;;;;;4957664;28;20476;-93
2022/07/31 11:29:31;;;;;;;3.13;2.50;;;19.30;99.90;;;;;;4973777;28;20146;-93
2022/07/31 11:32:13;;;;;;;2.67;2.17;;;19.20;99.90;;;;;;4970713;28;20090;-93
2022/07/31 11:34:49;;;;;;;2.90;2.03;;;19.20;99.90;;;;;;4979188;28;20030;-91
2022/07/31 11:37:27;;;;;;;5.05;1.90;;;19.20;99.90;;;;;;4972976;28;20081;-93
2022/07/31 11:39:54;;;;;;;3.95;1.95;;;19.20;99.90;;;;;;4963151;28;20027;-93
2022/07/31 11:42:21;;;;;;;4.13;1.80;;;19.20;99.90;;;;;;4961602;28;20055;-92
2022/07/31 11:44:47;;;;;;;1.40;1.30;;;19.30;99.90;;;;;;4966234;28;20023;-91
2022/07/31 11:47:13;;;;;;;1.02;0.90;;;19.30;99.90;;;;;;4980120;28;20118;-91
2022/07/31 11:49:39;;;;;;;4.03;0.60;;;19.20;99.90;;;;;;4988637;28;20134;-94
2022/07/31 11:52:07;;;;;;;0.60;0.38;;;19.10;99.90;;;;;;4960381;28;20051;-95
2022/07/31 11:54:34;;;;;;;1.65;0.30;;;19.10;99.90;;;;;;4958333;28;20676;-94
2022/07/31 11:57:01;;;;;;;1.05;0.20;;;19.00;99.90;;;;;;4959518;28;20077;-95
2022/07/31 11:59:31;;;;;;;0.10;0.10;;;18.90;99.90;;;;;;4959691;28;20144;-94
2022/07/31 12:02:08;;;;;;;2.75;0.38;;;18.80;99.90;;;;;;4973106;28;20027;-95
2022/07/31 12:04:36;;;;;;;1.77;0.30;;;18.80;99.90;;;;;;4958239;28;20023;-95
2022/07/31 12:07:06;;;;;;;0.45;0.20;;;18.70;99.90;;;;;;4960249;28;20035;-94
2022/07/31 12:09:33;;;;;;;0.47;0.10;;;18.70;99.90;;;;;;4956650;28;20023;-94
2022/07/31 12:12:03;;;;;;;0.25;0.20;;;18.70;99.90;;;;;;4964053;28;20038;-95
2022/07/31 12:14:36;;;;;;;0.10;0.10;;;18.70;99.90;;;;;;4955189;28;20138;-95
2022/07/31 12:17:04;;;;;;;0.45;0.30;;;18.70;99.90;;;;;;4961812;28;20035;-95
2022/07/31 12:19:33;;;;;;;6.60;3.50;;;18.70;99.90;;;;;;4976813;28;20027;-96
2022/07/31 12:21:59;;;;;;;6.07;3.75;;;18.80;99.90;;;;;;4959114;28;20027;-96
2022/07/31 12:24:25;;;;;;;6.72;3.40;;;18.80;99.90;;;;;;4957180;28;20026;-94
2022/07/31 12:26:58;;;;;;;13.20;6.82;;;18.90;99.90;;;;;;4958169;28;20015;-95
2022/07/31 12:29:34;;;;;;;3.50;2.15;;;18.90;99.90;;;;;;4958546;28;20183;-95
2022/07/31 12:32:01;;;;;;;0.77;0.77;;;19.00;99.90;;;;;;4956354;28;20053;-95
2022/07/31 12:34:30;;;;;;;0.50;0.50;;;19.10;99.90;;;;;;4957068;28;20034;-95
2022/07/31 12:37:05;;;;;;;0.30;0.30;;;19.10;99.90;;;;;;4957446;28;20054;-95
2022/07/31 12:39:35;;;;;;;2.17;0.40;;;19.10;99.90;;;;;;4957489;28;20349;-94
2022/07/31 12:42:01;;;;;;;0.35;0.28;;;19.20;99.90;;;;;;4962339;28;20054;-94
2022/07/31 12:44:27;;;;;;;5.50;1.20;;;19.30;99.90;;;;;;4962460;28;20091;-94
2022/07/31 12:46:53;;;;;;;0.50;0.50;;;19.40;99.90;;;;;;4979497;28;20461;-95
2022/07/31 12:49:19;;;;;;;1.90;0.40;;;19.40;99.90;;;;;;4983133;28;20030;-94
2022/07/31 12:51:45;;;;;;;1.08;0.57;;;19.40;99.90;;;;;;4984114;28;20133;-95
2022/07/31 12:54:11;;;;;;;0.40;0.40;;;19.50;99.90;;;;;;4982338;28;20065;-94